This is the latest recevied weather packets stored in our database for station/object HS9UAC-10. If no packets are shown the sender has not sent any weather packets the latest 10 day(s).
| Time | Temp. | Humidity | Pressure | Rain* | Wind** | Luminosity | Snow |
|---|---|---|---|---|---|---|---|
| 1777838657 | 33.89° C | 82% | 1007 hPa | - | - | 0 W/m² | - |
| 1777837732 | 33.89° C | 80% | 1007 hPa | - | - | 0 W/m² | - |
| 1777836808 | 33.89° C | 80% | 1007 hPa | - | - | 0 W/m² | - |
| 1777835883 | 34.44° C | 80% | 1007 hPa | - | - | 0 W/m² | - |
| 1777834958 | 33.89° C | 82% | 1007 hPa | - | - | 0 W/m² | - |
| 1777834034 | 34.44° C | 79% | 1007 hPa | - | - | 0 W/m² | - |
| 1777833109 | 34.44° C | 79% | 1007 hPa | - | - | 0 W/m² | - |
| 1777832184 | 33.89° C | 80% | 1007 hPa | - | - | 0 W/m² | - |
| 1777831260 | 34.44° C | 79% | 1007 hPa | - | - | 0 W/m² | - |
| 1777830335 | 34.44° C | 78% | 1008 hPa | - | - | 0 W/m² | - |
| 1777829718 | 34.44° C | 76% | 1008 hPa | - | - | 0 W/m² | - |
| 1777828793 | 35° C | 75% | 1008 hPa | - | - | 0 W/m² | - |
| 1777827869 | 35.56° C | 71% | 1008 hPa | - | - | 0 W/m² | - |
| 1777826945 | 35.56° C | 70% | 1008 hPa | - | - | 0 W/m² | - |
| 1777826020 | 35.56° C | 69% | 1008 hPa | - | - | 0 W/m² | - |
| 1777825095 | 36.11° C | 69% | 1008 hPa | - | - | 0 W/m² | - |
| 1777824171 | 36.11° C | 68% | 1008 hPa | - | - | 0 W/m² | - |
| 1777823246 | 36.67° C | 65% | 1008 hPa | - | - | 0 W/m² | - |
| 1777822322 | 36.67° C | 65% | 1008 hPa | - | - | 0 W/m² | - |
| 1777821397 | 36.67° C | 64% | 1008 hPa | - | - | 0 W/m² | - |
| 1777820473 | 36.67° C | 65% | 1008 hPa | - | - | 0 W/m² | - |
| 1777819548 | 36.67° C | 65% | 1008 hPa | - | - | 0 W/m² | - |
| 1777818623 | 36.67° C | 64% | 1008 hPa | - | - | 0 W/m² | - |
| 1777817699 | 37.78° C | 61% | 1008 hPa | - | - | 0 W/m² | - |
| 1777816774 | 37.22° C | 61% | 1007 hPa | - | - | 0 W/m² | - |
* Rain since midnight (hover to see other rain measurements)
** Current wind speed in m/s (hover to see current wind gust speed)